Time;durP1;ratioP1;P1;durP2;ratioP2;P2;SDS_P1;SDS_P2;PMS_P1;PMS_P2;Temp;Humidity;BMP_temperature;BMP_pressure;BME280_temperature;BME280_humidity;BME280_pressure;Samples;Min_cycle;Max_cycle;Signal;HPM_P1;HPM_P2
2022/08/16 00:02:00;;;;;;;12.00;8.52;;;22.80;99.90;;;;;;5034476;28;20538;-80
2022/08/16 00:04:27;;;;;;;11.03;8.60;;;22.80;99.90;;;;;;5036198;28;20049;-80
2022/08/16 00:06:53;;;;;;;9.75;8.75;;;22.80;99.90;;;;;;5034640;28;20054;-80
2022/08/16 00:09:19;;;;;;;11.50;8.15;;;22.80;99.90;;;;;;5035950;28;20037;-81
2022/08/16 00:11:46;;;;;;;10.43;8.38;;;22.90;99.90;;;;;;5035464;28;20137;-79
2022/08/16 00:14:19;;;;;;;9.55;7.72;;;22.90;99.90;;;;;;5035851;28;20045;-82
2022/08/16 00:16:45;;;;;;;10.00;8.02;;;22.80;99.90;;;;;;5035019;28;20037;-81
2022/08/16 00:19:14;;;;;;;11.75;8.48;;;22.80;99.90;;;;;;5034492;28;20408;-81
2022/08/16 00:21:41;;;;;;;9.30;8.40;;;22.80;99.90;;;;;;5035650;28;20129;-81
2022/08/16 00:24:06;;;;;;;9.52;8.02;;;22.80;99.90;;;;;;5034690;28;20049;-81
2022/08/16 00:26:32;;;;;;;12.03;9.00;;;22.70;99.90;;;;;;5036067;28;20069;-80
2022/08/16 00:28:57;;;;;;;10.77;9.67;;;22.70;99.90;;;;;;5034555;28;20041;-82
2022/08/16 00:31:23;;;;;;;12.13;8.80;;;22.70;99.90;;;;;;5035665;28;20053;-81
2022/08/16 00:33:49;;;;;;;12.37;8.10;;;22.60;99.90;;;;;;5035632;28;20386;-81
2022/08/16 00:36:14;;;;;;;10.90;8.53;;;22.70;99.90;;;;;;5034540;28;20050;-81
2022/08/16 00:38:40;;;;;;;12.10;7.57;;;22.70;99.90;;;;;;5035668;28;20045;-81
2022/08/16 00:41:06;;;;;;;9.93;7.20;;;22.70;99.90;;;;;;5035896;28;20132;-81
2022/08/16 00:43:34;;;;;;;8.10;7.30;;;22.70;99.90;;;;;;5035438;28;20428;-82
2022/08/16 00:46:05;;;;;;;8.60;7.28;;;22.50;99.90;;;;;;5035341;28;20055;-80
2022/08/16 00:48:31;;;;;;;8.60;7.80;;;22.70;99.90;;;;;;5035313;28;20465;-81
2022/08/16 00:50:58;;;;;;;12.35;7.85;;;22.60;99.90;;;;;;5035213;28;20049;-81
2022/08/16 00:53:24;;;;;;;;;;;22.60;99.90;;;;;;5034790;28;20053;-81
2022/08/16 00:55:53;;;;;;;8.35;6.95;;;22.60;99.90;;;;;;5035210;28;19925;-81
2022/08/16 00:58:22;;;;;;;12.32;7.25;;;22.50;99.90;;;;;;5035443;28;20396;-81
2022/08/16 01:00:49;;;;;;;10.13;7.18;;;22.50;99.90;;;;;;5035395;28;20397;-81
2022/08/16 01:03:17;;;;;;;10.77;6.85;;;22.50;99.90;;;;;;5035110;28;20049;-81
2022/08/16 01:05:44;;;;;;;9.02;6.95;;;22.50;99.90;;;;;;5035010;28;20057;-80
2022/08/16 01:08:12;;;;;;;8.57;6.47;;;22.60;99.90;;;;;;5035055;28;20042;-81
2022/08/16 01:10:38;;;;;;;9.43;6.90;;;22.30;99.90;;;;;;5033830;28;20058;-80
2022/08/16 01:13:13;;;;;;;8.10;6.57;;;22.30;99.90;;;;;;5034946;28;20408;-82
2022/08/16 01:15:43;;;;;;;7.47;6.55;;;22.40;99.90;;;;;;5034730;28;20131;-81
2022/08/16 01:18:10;;;;;;;8.43;7.20;;;22.20;99.90;;;;;;5034175;28;20037;-82
2022/08/16 01:20:43;;;;;;;7.68;6.90;;;22.30;99.90;;;;;;5033727;28;20050;-81
2022/08/16 01:23:21;;;;;;;8.18;6.57;;;22.30;99.90;;;;;;5034983;28;20054;-81
2022/08/16 01:25:51;;;;;;;10.57;7.70;;;22.40;99.90;;;;;;5034688;28;20045;-81
2022/08/16 01:28:19;;;;;;;10.15;7.43;;;22.30;99.90;;;;;;5034708;28;20053;-81
2022/08/16 01:30:49;;;;;;;10.10;7.10;;;22.20;99.90;;;;;;5034443;28;20064;-81
2022/08/16 01:33:16;;;;;;;9.02;7.88;;;22.20;99.90;;;;;;5035017;28;20130;-81
2022/08/16 01:35:45;;;;;;;9.73;7.47;;;22.10;99.90;;;;;;5034203;28;20374;-82
2022/08/16 01:38:36;;;;;;;11.07;9.27;;;22.10;99.90;;;;;;5033080;28;20432;-80
2022/08/16 01:41:09;;;;;;;12.18;10.98;;;22.10;99.90;;;;;;5033227;28;20048;-80
2022/08/16 01:43:36;;;;;;;14.20;12.68;;;22.10;99.90;;;;;;5034617;28;20463;-80
2022/08/16 01:46:36;;;;;;;13.55;12.30;;;22.10;99.90;;;;;;5034592;28;20136;-81
2022/08/16 01:49:27;;;;;;;14.20;12.75;;;22.10;99.90;;;;;;5034131;28;20409;-81
2022/08/16 01:51:59;;;;;;;16.92;13.80;;;22.10;99.90;;;;;;5034207;28;20125;-81
2022/08/16 01:54:25;;;;;;;18.45;15.90;;;22.00;99.90;;;;;;5034179;28;20050;-81
2022/08/16 01:56:51;;;;;;;17.80;16.00;;;22.00;99.90;;;;;;5034600;28;20075;-81
2022/08/16 01:59:17;;;;;;;18.07;15.17;;;22.00;99.90;;;;;;5034055;28;20540;-81
2022/08/16 02:01:45;;;;;;;17.13;15.10;;;21.90;99.90;;;;;;5034082;28;20045;-82
2022/08/16 02:04:10;;;;;;;18.77;15.75;;;22.00;99.90;;;;;;5033893;28;20049;-79
2022/08/16 02:06:37;;;;;;;18.50;15.87;;;21.90;99.90;;;;;;5034206;28;20049;-80
2022/08/16 02:09:04;;;;;;;18.73;16.83;;;21.90;99.90;;;;;;5032980;28;20378;-80
2022/08/16 02:11:29;;;;;;;22.70;17.27;;;21.90;99.90;;;;;;5032485;28;20060;-80
2022/08/16 02:13:55;;;;;;;18.20;16.40;;;21.90;99.90;;;;;;5033970;28;20440;-80
2022/08/16 02:16:21;;;;;;;18.23;16.43;;;21.80;99.90;;;;;;5032853;28;20045;-80
2022/08/16 02:18:46;;;;;;;18.40;16.17;;;21.80;99.90;;;;;;5032518;28;20051;-80
2022/08/16 02:21:13;;;;;;;19.53;17.10;;;21.60;99.90;;;;;;5033912;28;20075;-80
2022/08/16 02:23:40;;;;;;;17.67;15.85;;;21.70;99.90;;;;;;5033847;28;20050;-79
2022/08/16 02:26:06;;;;;;;22.77;16.83;;;21.70;99.90;;;;;;5032890;28;20069;-80
2022/08/16 02:28:33;;;;;;;17.27;15.70;;;21.60;99.90;;;;;;5033649;28;20369;-80
2022/08/16 02:31:03;;;;;;;17.35;15.75;;;21.60;99.90;;;;;;5035634;28;20098;-80
2022/08/16 02:33:30;;;;;;;18.20;16.40;;;21.50;99.90;;;;;;5036918;28;20099;-81
2022/08/16 02:35:56;;;;;;;17.58;15.88;;;21.50;99.90;;;;;;5037767;28;20041;-80
2022/08/16 02:38:21;;;;;;;17.30;15.57;;;21.40;99.90;;;;;;5037730;28;20046;-82
2022/08/16 02:40:47;;;;;;;19.30;15.30;;;21.40;99.90;;;;;;5037729;28;20136;-82
2022/08/16 02:43:13;;;;;;;18.13;16.35;;;21.40;99.90;;;;;;5037698;28;20046;-81
2022/08/16 02:45:39;;;;;;;17.67;16.00;;;21.50;99.90;;;;;;5037636;28;20045;-82
2022/08/16 02:48:04;;;;;;;16.27;14.70;;;21.30;99.90;;;;;;5037534;28;20055;-80
2022/08/16 02:50:30;;;;;;;18.40;16.57;;;21.30;99.90;;;;;;5037679;28;20041;-82
2022/08/16 02:52:56;;;;;;;19.70;17.30;;;21.30;99.90;;;;;;5037477;28;20396;-80
2022/08/16 02:55:22;;;;;;;16.43;14.70;;;21.20;99.90;;;;;;5036200;28;20038;-80
2022/08/16 02:57:47;;;;;;;17.35;15.55;;;21.20;99.90;;;;;;5036548;28;20108;-81
2022/08/16 03:00:15;;;;;;;17.33;15.53;;;21.20;99.90;;;;;;5035774;28;20045;-80
2022/08/16 03:02:43;;;;;;;18.42;16.10;;;21.20;99.90;;;;;;5037236;28;20467;-80
2022/08/16 03:05:11;;;;;;;17.95;15.93;;;21.10;99.90;;;;;;5037311;28;20049;-79
2022/08/16 03:07:37;;;;;;;17.38;15.57;;;21.20;99.90;;;;;;5037212;28;20201;-81
2022/08/16 03:10:05;;;;;;;16.35;14.65;;;21.20;99.90;;;;;;5037224;28;20060;-79
2022/08/16 03:12:31;;;;;;;18.00;16.13;;;21.20;99.90;;;;;;5037163;28;20057;-81
2022/08/16 03:14:57;;;;;;;17.00;15.27;;;21.20;99.90;;;;;;5037191;28;20045;-81
2022/08/16 03:17:24;;;;;;;17.08;15.43;;;21.20;99.90;;;;;;5037007;28;20393;-81
2022/08/16 03:19:52;;;;;;;;;;;21.20;99.90;;;;;;5037137;28;20383;-80
2022/08/16 03:22:19;;;;;;;16.50;14.70;;;21.20;99.90;;;;;;5036943;28;19921;-81
2022/08/16 03:24:44;;;;;;;16.13;14.50;;;21.20;99.90;;;;;;5036854;28;20049;-81
2022/08/16 03:27:10;;;;;;;16.90;15.17;;;21.20;99.90;;;;;;5036847;28;20416;-81
2022/08/16 03:29:35;;;;;;;15.97;14.47;;;21.20;99.90;;;;;;5036838;28;20041;-80
2022/08/16 03:32:02;;;;;;;15.87;14.27;;;21.20;99.90;;;;;;5036688;28;20469;-81
2022/08/16 03:34:29;;;;;;;16.35;14.65;;;21.10;99.90;;;;;;5036167;28;20055;-80
2022/08/16 03:36:56;;;;;;;15.82;14.05;;;21.20;99.90;;;;;;5036702;28;20080;-81
2022/08/16 03:39:22;;;;;;;16.27;14.65;;;21.10;99.90;;;;;;5036653;28;20042;-82
2022/08/16 03:41:49;;;;;;;15.50;13.73;;;21.00;99.90;;;;;;5036368;28;20137;-80
2022/08/16 03:44:14;;;;;;;17.05;14.30;;;20.80;99.90;;;;;;5036686;28;20171;-80
2022/08/16 03:46:40;;;;;;;16.77;15.17;;;20.90;99.90;;;;;;5036392;28;20068;-80
2022/08/16 03:49:09;;;;;;;17.20;14.63;;;21.00;99.90;;;;;;5036619;28;20046;-79
2022/08/16 03:51:35;;;;;;;16.05;14.45;;;20.90;99.90;;;;;;5036379;28;20083;-80
2022/08/16 03:54:00;;;;;;;16.03;14.43;;;20.80;99.90;;;;;;5036348;28;20084;-80
2022/08/16 03:56:26;;;;;;;19.30;15.73;;;20.80;99.90;;;;;;5035412;28;20071;-80
2022/08/16 03:58:53;;;;;;;17.02;15.32;;;20.70;99.90;;;;;;5036265;28;20049;-79
2022/08/16 04:01:20;;;;;;;16.20;14.57;;;20.70;99.90;;;;;;5035288;28;20080;-79
2022/08/16 04:03:46;;;;;;;18.70;16.38;;;20.60;99.90;;;;;;5036237;28;20046;-80
2022/08/16 04:06:11;;;;;;;18.60;16.63;;;20.60;99.90;;;;;;5035330;28;20064;-81
2022/08/16 04:08:37;;;;;;;18.20;16.30;;;20.60;99.90;;;;;;5036011;28;20052;-80
2022/08/16 04:11:03;;;;;;;18.77;16.93;;;20.50;99.90;;;;;;5036135;28;20060;-81
2022/08/16 04:13:29;;;;;;;18.30;16.43;;;20.50;99.90;;;;;;5035943;28;20052;-80
2022/08/16 04:15:58;;;;;;;18.33;16.20;;;20.40;99.90;;;;;;5034670;28;20033;-81
2022/08/16 04:18:24;;;;;;;19.52;17.50;;;20.40;99.90;;;;;;5035742;28;20046;-81
2022/08/16 04:20:50;;;;;;;;;;;20.30;99.90;;;;;;5035078;28;20038;-81
2022/08/16 04:23:16;;;;;;;19.13;17.20;;;20.30;99.90;;;;;;5034698;28;19928;-81
2022/08/16 04:25:41;;;;;;;20.53;17.10;;;20.30;99.90;;;;;;5034353;28;20045;-81
2022/08/16 04:28:07;;;;;;;18.37;16.53;;;20.20;99.90;;;;;;5035560;28;20057;-80
2022/08/16 04:30:33;;;;;;;18.33;16.50;;;20.20;99.90;;;;;;5035323;28;20481;-81
2022/08/16 04:32:59;;;;;;;18.80;16.90;;;20.30;99.90;;;;;;5001756;28;20045;-81
2022/08/16 04:35:25;;;;;;;19.50;17.20;;;20.20;99.90;;;;;;5035455;28;20045;-81
2022/08/16 04:37:51;;;;;;;19.70;17.20;;;20.20;99.90;;;;;;5034441;28;20129;-81
2022/08/16 04:40:20;;;;;;;17.85;16.02;;;20.20;99.90;;;;;;5035272;28;20299;-81
2022/08/16 04:42:45;;;;;;;18.90;16.88;;;20.20;99.90;;;;;;5035504;28;20041;-80
2022/08/16 04:45:13;;;;;;;19.60;17.50;;;20.20;99.90;;;;;;5035340;28;20124;-81
2022/08/16 04:47:40;;;;;;;20.20;17.73;;;20.20;99.90;;;;;;5035661;28;20053;-80
2022/08/16 04:50:07;;;;;;;19.35;17.35;;;20.20;99.90;;;;;;5035481;28;20047;-81
2022/08/16 04:52:34;;;;;;;18.80;16.95;;;20.10;99.90;;;;;;5034645;28;20053;-81
2022/08/16 04:54:59;;;;;;;19.42;17.52;;;20.10;99.90;;;;;;5034877;28;20128;-81
2022/08/16 04:57:25;;;;;;;19.73;17.70;;;20.10;99.90;;;;;;5035056;28;20120;-81
2022/08/16 04:59:51;;;;;;;18.87;16.97;;;20.10;99.90;;;;;;5034865;28;20052;-81
2022/08/16 05:02:16;;;;;;;19.80;17.90;;;20.00;99.90;;;;;;5034967;28;20045;-81
2022/08/16 05:04:42;;;;;;;18.80;16.83;;;20.10;99.90;;;;;;5035329;28;20136;-81
2022/08/16 05:07:07;;;;;;;19.07;17.07;;;20.10;99.90;;;;;;5034814;28;20404;-82
2022/08/16 05:09:33;;;;;;;19.00;16.23;;;20.00;99.90;;;;;;5034955;28;20092;-82
2022/08/16 05:11:59;;;;;;;18.47;16.53;;;20.00;99.90;;;;;;5034948;28;20108;-82
2022/08/16 05:14:24;;;;;;;19.23;17.33;;;20.10;99.90;;;;;;5034731;28;20041;-82
2022/08/16 05:16:50;;;;;;;19.30;17.27;;;20.00;99.90;;;;;;5034660;28;20480;-81
2022/08/16 05:19:16;;;;;;;18.07;16.20;;;20.10;99.90;;;;;;5033414;28;20077;-80
2022/08/16 05:21:41;;;;;;;18.47;16.67;;;20.10;99.90;;;;;;5034440;28;20085;-81
2022/08/16 05:24:07;;;;;;;20.07;17.07;;;20.10;99.90;;;;;;5034692;28;20045;-81
2022/08/16 05:26:36;;;;;;;21.60;18.27;;;20.10;99.90;;;;;;5033281;28;20099;-82
2022/08/16 05:29:03;;;;;;;18.45;16.52;;;20.10;99.90;;;;;;5034334;28;20400;-81
2022/08/16 05:31:32;;;;;;;18.38;15.73;;;20.20;99.90;;;;;;5034348;28;20048;-81
2022/08/16 05:34:00;;;;;;;19.48;16.70;;;20.20;99.90;;;;;;5034346;28;20045;-80
2022/08/16 05:36:26;;;;;;;18.30;16.50;;;20.20;99.90;;;;;;5034753;28;20388;-81
2022/08/16 05:38:51;;;;;;;18.60;16.60;;;20.20;99.90;;;;;;5033201;28;20045;-81
2022/08/16 05:41:17;;;;;;;18.13;16.33;;;20.20;99.90;;;;;;5034215;28;20056;-81
2022/08/16 05:43:43;;;;;;;18.00;16.17;;;20.20;99.90;;;;;;5033016;28;20077;-81
2022/08/16 05:46:10;;;;;;;18.83;16.57;;;20.30;99.90;;;;;;5033068;28;20381;-80
2022/08/16 05:48:36;;;;;;;17.98;15.57;;;20.20;99.90;;;;;;5033384;28;20056;-81
2022/08/16 05:51:02;;;;;;;17.13;15.37;;;20.30;99.90;;;;;;5033015;28;20388;-81
2022/08/16 05:53:27;;;;;;;16.53;14.83;;;20.40;99.90;;;;;;5034106;28;20124;-82
2022/08/16 05:55:53;;;;;;;16.67;15.00;;;20.30;99.90;;;;;;5034193;28;20080;-81
2022/08/16 05:58:18;;;;;;;16.73;14.73;;;20.40;99.90;;;;;;5034106;28;20037;-81
2022/08/16 06:00:44;;;;;;;16.60;15.03;;;20.40;99.90;;;;;;5034345;28;20052;-81
2022/08/16 06:03:10;;;;;;;18.87;15.53;;;20.40;99.90;;;;;;5033409;28;20053;-81
2022/08/16 06:05:35;;;;;;;16.43;14.83;;;20.50;99.90;;;;;;5033899;28;20428;-81
2022/08/16 06:08:01;;;;;;;16.90;15.27;;;20.50;99.90;;;;;;5032922;28;20049;-82
2022/08/16 06:10:26;;;;;;;16.70;14.77;;;20.60;99.90;;;;;;5032477;28;20409;-82
2022/08/16 06:12:52;;;;;;;16.03;14.43;;;20.70;99.90;;;;;;5033656;28;20054;-81
2022/08/16 06:15:19;;;;;;;14.40;13.00;;;20.80;99.90;;;;;;5033471;28;20475;-82
2022/08/16 06:17:45;;;;;;;16.95;13.98;;;20.90;99.90;;;;;;5033634;28;20041;-82
2022/08/16 06:20:16;;;;;;;14.77;13.20;;;21.00;99.90;;;;;;5033618;28;20045;-82
2022/08/16 06:22:44;;;;;;;15.25;13.73;;;21.30;99.90;;;;;;5033867;28;20077;-82
2022/08/16 06:25:10;;;;;;;14.82;13.27;;;21.40;99.90;;;;;;5032608;28;20046;-82
2022/08/16 06:27:38;;;;;;;15.32;12.90;;;21.70;99.90;;;;;;5033446;28;20064;-82
2022/08/16 06:30:07;;;;;;;14.25;12.75;;;21.90;99.90;;;;;;5033935;28;20041;-82
2022/08/16 06:32:33;;;;;;;16.15;12.52;;;22.20;99.90;;;;;;5032748;28;20193;-82
2022/08/16 06:34:59;;;;;;;12.57;11.37;;;22.40;99.90;;;;;;5033483;28;20162;-81
2022/08/16 06:37:25;;;;;;;14.60;11.93;;;22.60;99.90;;;;;;5033587;28;20048;-82
2022/08/16 06:39:50;;;;;;;16.53;12.17;;;22.80;99.90;;;;;;5033316;28;20396;-82
2022/08/16 06:42:17;;;;;;;13.83;12.43;;;22.90;99.90;;;;;;5033138;28;20041;-82
2022/08/16 06:44:43;;;;;;;14.43;12.88;;;23.00;99.90;;;;;;5033771;28;20041;-81
2022/08/16 06:47:08;;;;;;;14.40;12.40;;;23.10;99.90;;;;;;5033683;28;20399;-81
2022/08/16 06:49:34;;;;;;;15.60;13.77;;;23.00;99.90;;;;;;5033392;28;20127;-81
2022/08/16 06:51:59;;;;;;;14.30;12.80;;;23.00;99.90;;;;;;5033767;28;20037;-80
2022/08/16 06:54:25;;;;;;;14.63;12.67;;;23.10;99.90;;;;;;5033467;28;20041;-82
2022/08/16 06:56:51;;;;;;;13.83;12.33;;;23.10;99.90;;;;;;5033792;28;20044;-82
2022/08/16 06:59:16;;;;;;;13.83;11.27;;;23.20;99.90;;;;;;5046206;28;20442;-81
2022/08/16 07:01:42;;;;;;;16.10;12.73;;;23.30;99.90;;;;;;5035459;28;20041;-82
2022/08/16 07:04:07;;;;;;;12.77;11.20;;;23.50;99.90;;;;;;5033503;28;20046;-82
2022/08/16 07:06:33;;;;;;;13.07;11.77;;;23.60;99.90;;;;;;5032141;28;20396;-82
2022/08/16 07:08:59;;;;;;;14.97;12.03;;;23.70;99.90;;;;;;5033236;28;20393;-82
2022/08/16 07:11:25;;;;;;;13.50;12.13;;;23.90;99.90;;;;;;5031474;28;20053;-83
2022/08/16 07:13:52;;;;;;;13.52;12.13;;;23.90;99.90;;;;;;5032185;28;20098;-82
2022/08/16 07:16:19;;;;;;;13.07;10.93;;;24.10;99.90;;;;;;5033916;28;20124;-82
2022/08/16 07:18:45;;;;;;;12.88;10.90;;;24.20;99.90;;;;;;5036741;28;20049;-82
2022/08/16 07:21:12;;;;;;;12.60;11.25;;;24.30;99.90;;;;;;5036709;28;20508;-83
2022/08/16 07:23:45;;;;;;;14.50;11.57;;;24.40;99.90;;;;;;5036749;28;20049;-82
2022/08/16 07:26:17;;;;;;;12.13;10.57;;;24.60;99.90;;;;;;5036619;28;20049;-82
2022/08/16 07:28:43;;;;;;;12.95;11.60;;;24.70;99.90;;;;;;5037290;28;20042;-82
2022/08/16 07:31:08;;;;;;;13.10;11.57;;;24.70;99.90;;;;;;5037018;28;20052;-82
2022/08/16 07:33:36;;;;;;;14.40;10.63;;;24.70;99.90;;;;;;5036316;28;20453;-82
2022/08/16 07:36:06;;;;;;;13.23;11.82;;;24.60;99.90;;;;;;5035150;28;20055;-82
2022/08/16 07:38:33;;;;;;;12.20;10.88;;;24.70;99.90;;;;;;5036533;28;20099;-82
2022/08/16 07:40:59;;;;;;;16.58;11.88;;;24.70;99.90;;;;;;5036474;28;20045;-82
2022/08/16 07:43:25;;;;;;;11.83;10.70;;;24.80;99.90;;;;;;5035507;28;20079;-82
2022/08/16 07:45:51;;;;;;;13.45;11.00;;;25.00;99.90;;;;;;5036374;28;20045;-83
2022/08/16 07:48:17;;;;;;;12.93;10.40;;;25.00;99.90;;;;;;5035309;28;20381;-83
2022/08/16 07:50:43;;;;;;;12.77;11.45;;;25.10;99.90;;;;;;5035384;28;20071;-82
2022/08/16 07:53:09;;;;;;;14.20;11.60;;;25.30;99.90;;;;;;5035142;28;20428;-82
2022/08/16 07:55:35;;;;;;;15.68;12.80;;;25.30;99.90;;;;;;5036196;28;20048;-83
2022/08/16 07:58:01;;;;;;;14.40;11.90;;;25.40;99.90;;;;;;5035321;28;20053;-82
2022/08/16 08:00:27;;;;;;;15.38;13.30;;;25.50;99.90;;;;;;5036073;28;20385;-81
2022/08/16 08:02:54;;;;;;;17.00;13.13;;;25.50;99.90;;;;;;5035986;28;20045;-82
2022/08/16 08:05:21;;;;;;;15.43;12.93;;;25.40;99.90;;;;;;5036408;28;20041;-82
2022/08/16 08:07:46;;;;;;;13.98;12.48;;;25.30;99.90;;;;;;5034967;28;20381;-82
2022/08/16 08:10:12;;;;;;;15.33;13.70;;;25.30;99.90;;;;;;5036204;28;20064;-83
2022/08/16 08:12:38;;;;;;;16.20;13.40;;;25.30;99.90;;;;;;5035015;28;20053;-82
2022/08/16 08:15:09;;;;;;;15.50;13.90;;;25.40;99.90;;;;;;5036014;28;20049;-82
2022/08/16 08:17:37;;;;;;;14.68;12.35;;;25.50;99.90;;;;;;5036331;28;20037;-82
2022/08/16 08:20:04;;;;;;;14.00;11.55;;;25.70;99.90;;;;;;5035875;28;20076;-83
2022/08/16 08:22:33;;;;;;;15.13;11.45;;;25.70;99.90;;;;;;5035821;28;20099;-82
2022/08/16 08:24:59;;;;;;;12.82;11.50;;;25.70;99.90;;;;;;5035666;28;20041;-82
2022/08/16 08:27:25;;;;;;;13.95;11.32;;;25.90;99.90;;;;;;5034684;28;20049;-81
2022/08/16 08:29:51;;;;;;;18.63;13.07;;;26.10;99.90;;;;;;5034979;28;20547;-82
2022/08/16 08:32:20;;;;;;;15.88;13.00;;;26.00;99.90;;;;;;5035490;28;20096;-82
2022/08/16 08:34:49;;;;;;;13.70;11.95;;;25.90;99.90;;;;;;5034386;28;20042;-83
2022/08/16 08:37:14;;;;;;;12.60;11.30;;;26.10;99.90;;;;;;5035420;28;20049;-82
2022/08/16 08:39:40;;;;;;;15.77;12.63;;;26.20;99.90;;;;;;5035010;28;20044;-81
2022/08/16 08:42:10;;;;;;;13.83;12.13;;;26.30;99.90;;;;;;5035074;28;20128;-83
2022/08/16 08:44:36;;;;;;;11.93;10.75;;;26.30;99.90;;;;;;5035627;28;20128;-82
2022/08/16 08:47:04;;;;;;;10.87;9.73;;;26.40;99.90;;;;;;5035389;28;20133;-82
2022/08/16 08:49:30;;;;;;;13.00;11.13;;;26.50;99.90;;;;;;5035437;28;20042;-82
2022/08/16 08:51:56;;;;;;;13.65;12.23;;;26.70;99.90;;;;;;5034965;28;20064;-80
2022/08/16 08:54:25;;;;;;;10.98;9.77;;;26.80;99.90;;;;;;5035453;28;20519;-80
2022/08/16 08:56:51;;;;;;;15.15;11.48;;;26.80;99.90;;;;;;5035495;28;20089;-81
2022/08/16 08:59:17;;;;;;;10.80;9.55;;;26.90;99.90;;;;;;5035252;28;20499;-80
2022/08/16 09:01:43;;;;;;;10.97;9.77;;;27.00;99.90;;;;;;5035208;28;20076;-81
2022/08/16 09:04:10;;;;;;;10.10;8.45;;;27.00;99.90;;;;;;5035290;28;20041;-82
2022/08/16 09:06:37;;;;;;;10.98;8.73;;;27.10;99.90;;;;;;5035696;28;20041;-81
2022/08/16 09:09:04;;;;;;;11.73;8.90;;;27.30;99.90;;;;;;5035059;28;20084;-81
2022/08/16 09:11:30;;;;;;;11.43;9.77;;;27.30;99.90;;;;;;5035072;28;20061;-82
2022/08/16 09:13:56;;;;;;;11.30;9.27;;;27.40;99.90;;;;;;5035166;28;20124;-81
2022/08/16 09:16:21;;;;;;;9.53;8.53;;;27.40;99.90;;;;;;5034867;28;20053;-82
2022/08/16 09:18:47;;;;;;;10.20;9.20;;;27.50;99.90;;;;;;5034261;28;20037;-81
2022/08/16 09:21:14;;;;;;;12.25;9.23;;;27.50;99.90;;;;;;5034722;28;20051;-82
2022/08/16 09:23:40;;;;;;;10.48;8.50;;;27.70;99.90;;;;;;5034596;28;20049;-81
2022/08/16 09:26:09;;;;;;;11.73;9.65;;;27.80;99.90;;;;;;5033559;28;20056;-82
2022/08/16 09:28:36;;;;;;;11.70;10.00;;;27.90;99.90;;;;;;5034558;28;20045;-81
2022/08/16 09:31:03;;;;;;;9.00;7.63;;;27.90;99.30;;;;;;5034466;28;20042;-82
2022/08/16 09:33:29;;;;;;;8.05;6.72;;;28.00;99.80;;;;;;5034369;28;20056;-81
2022/08/16 09:35:55;;;;;;;10.27;6.57;;;28.00;98.70;;;;;;5034150;28;20404;-81
2022/08/16 09:38:23;;;;;;;9.10;6.53;;;28.00;98.10;;;;;;5034315;28;20048;-82
2022/08/16 09:40:49;;;;;;;8.25;6.60;;;28.10;98.00;;;;;;5034092;28;20504;-82
2022/08/16 09:43:18;;;;;;;12.55;7.13;;;28.20;97.80;;;;;;5033393;28;20045;-82
2022/08/16 09:45:45;;;;;;;9.43;6.75;;;28.30;97.40;;;;;;5033010;28;20120;-82
2022/08/16 09:48:13;;;;;;;11.52;7.43;;;28.40;96.90;;;;;;5034196;28;20053;-81
2022/08/16 09:50:40;;;;;;;9.15;6.20;;;28.40;96.50;;;;;;5034092;28;20049;-81
2022/08/16 09:53:15;;;;;;;7.90;5.07;;;28.50;96.40;;;;;;5032929;28;20053;-82
2022/08/16 09:55:45;;;;;;;8.93;5.22;;;28.50;95.40;;;;;;5033139;28;20041;-81
2022/08/16 09:58:11;;;;;;;8.32;5.47;;;28.60;96.10;;;;;;5033974;28;20404;-82
2022/08/16 10:00:37;;;;;;;6.95;5.63;;;28.70;95.50;;;;;;5033865;28;20041;-81
2022/08/16 10:03:04;;;;;;;6.28;5.07;;;28.70;94.80;;;;;;5034307;28;20045;-81
2022/08/16 10:05:31;;;;;;;7.22;5.82;;;28.60;94.50;;;;;;5033953;28;20156;-81
2022/08/16 10:07:58;;;;;;;6.63;5.57;;;28.70;94.80;;;;;;5032699;28;20041;-81
2022/08/16 10:10:24;;;;;;;10.07;5.80;;;28.70;95.10;;;;;;5033734;28;20057;-81
2022/08/16 10:15:35;;;;;;;9.35;6.75;;;28.80;94.90;;;;;;5034259;28;20049;-81
2022/08/16 10:18:06;;;;;;;7.30;6.55;;;28.90;94.50;;;;;;5034355;28;20049;-81
2022/08/16 10:20:35;;;;;;;7.97;5.93;;;29.00;94.70;;;;;;5033748;28;20041;-81
2022/08/16 10:23:03;;;;;;;9.13;6.40;;;29.00;94.60;;;;;;5033715;28;20049;-81
2022/08/16 10:25:29;;;;;;;8.50;5.65;;;29.10;94.80;;;;;;5033608;28;20049;-82
2022/08/16 10:27:55;;;;;;;8.60;5.88;;;29.20;94.70;;;;;;5032423;28;20057;-81
2022/08/16 10:30:20;;;;;;;10.67;6.20;;;29.30;93.60;;;;;;5033700;28;20044;-82
2022/08/16 10:32:46;;;;;;;9.40;6.20;;;29.30;93.70;;;;;;5033980;28;20049;-82
2022/08/16 10:35:11;;;;;;;6.80;6.03;;;29.30;94.10;;;;;;5033890;28;20513;-81
2022/08/16 10:37:37;;;;;;;6.97;6.27;;;29.40;93.90;;;;;;5033595;28;20045;-82
2022/08/16 10:40:05;;;;;;;6.07;5.20;;;29.40;93.70;;;;;;5033539;28;20300;-83
2022/08/16 10:42:30;;;;;;;7.45;5.60;;;29.50;93.80;;;;;;5033569;28;20045;-81
2022/08/16 10:44:56;;;;;;;7.10;4.90;;;29.40;93.10;;;;;;5033667;28;20080;-82
2022/08/16 10:47:22;;;;;;;7.97;4.80;;;29.50;93.00;;;;;;5032892;28;20128;-81
2022/08/16 10:49:47;;;;;;;6.23;4.90;;;29.60;93.00;;;;;;5041314;28;20084;-83
2022/08/16 10:52:13;;;;;;;6.47;4.50;;;29.60;92.50;;;;;;5037304;28;20049;-82
2022/08/16 10:54:39;;;;;;;8.65;4.18;;;29.60;92.30;;;;;;5036668;28;20077;-83
2022/08/16 10:57:05;;;;;;;7.63;3.92;;;29.60;90.80;;;;;;5037194;28;20092;-81
2022/08/16 10:59:32;;;;;;;7.03;3.88;;;29.70;91.60;;;;;;5037324;28;20041;-80
2022/08/16 11:01:58;;;;;;;6.63;3.78;;;29.80;92.00;;;;;;5037712;28;20049;-82
2022/08/16 11:04:25;;;;;;;5.50;3.53;;;29.90;91.00;;;;;;5037533;28;20038;-82
2022/08/16 11:06:51;;;;;;;4.57;3.10;;;29.90;90.80;;;;;;5037253;28;20049;-82
2022/08/16 11:09:16;;;;;;;5.80;3.28;;;30.00;90.50;;;;;;5037214;28;20049;-83
2022/08/16 11:11:42;;;;;;;6.50;4.15;;;30.10;90.10;;;;;;5037329;28;20064;-83
2022/08/16 11:14:08;;;;;;;8.40;4.05;;;30.10;90.20;;;;;;5036321;28;20053;-81
2022/08/16 11:16:34;;;;;;;5.78;4.75;;;30.10;90.20;;;;;;5037001;28;20083;-82
2022/08/16 11:19:00;;;;;;;6.72;4.10;;;30.10;90.00;;;;;;5036958;28;20048;-83
2022/08/16 11:21:25;;;;;;;9.15;3.85;;;30.10;89.40;;;;;;5037003;28;20120;-82
2022/08/16 11:23:52;;;;;;;5.67;3.70;;;30.10;89.40;;;;;;5038800;28;20126;-81
2022/08/16 11:26:17;;;;;;;;;;;30.20;89.10;;;;;;5038325;28;20095;-82
2022/08/16 11:28:43;;;;;;;6.65;3.90;;;30.30;88.70;;;;;;5037476;28;20537;-83
2022/08/16 11:31:09;;;;;;;8.23;3.30;;;30.30;88.60;;;;;;5036790;28;20472;-83
2022/08/16 11:33:35;;;;;;;6.03;3.40;;;30.40;88.80;;;;;;5036942;28;20496;-83
2022/08/16 11:36:01;;;;;;;5.68;4.40;;;30.40;89.50;;;;;;5037009;28;20041;-83
2022/08/16 11:38:30;;;;;;;9.73;4.30;;;30.50;89.80;;;;;;5036814;28;20045;-83
2022/08/16 11:40:58;;;;;;;5.90;3.80;;;30.60;89.80;;;;;;5036647;28;20060;-82
2022/08/16 11:43:35;;;;;;;6.15;3.72;;;30.70;88.20;;;;;;5037064;28;20081;-83
2022/08/16 11:46:03;;;;;;;;;;;30.70;87.20;;;;;;5037312;28;20052;-83
2022/08/16 11:48:32;;;;;;;4.35;3.55;;;30.70;86.90;;;;;;5036467;28;20279;-83
2022/08/16 11:50:59;;;;;;;4.68;3.30;;;30.60;86.40;;;;;;5035130;28;20495;-82
2022/08/16 11:53:27;;;;;;;4.60;3.30;;;30.60;87.00;;;;;;5036468;28;20055;-82
2022/08/16 11:55:53;;;;;;;4.03;3.42;;;30.50;87.20;;;;;;5036205;28;20404;-82
2022/08/16 11:58:19;;;;;;;6.45;3.15;;;30.50;87.30;;;;;;5034884;28;20548;-82
2022/08/16 12:00:45;;;;;;;4.40;3.20;;;30.60;87.20;;;;;;5036160;28;20136;-82
2022/08/16 12:03:12;;;;;;;4.55;2.70;;;30.70;85.80;;;;;;5035909;28;20492;-81
2022/08/16 12:05:39;;;;;;;5.00;2.83;;;30.80;85.20;;;;;;5036241;28;20060;-82
2022/08/16 12:08:06;;;;;;;5.15;3.00;;;30.90;84.70;;;;;;5036100;28;20041;-81
2022/08/16 12:10:34;;;;;;;4.13;2.88;;;31.00;84.30;;;;;;5036034;28;20091;-82
2022/08/16 12:13:00;;;;;;;5.57;3.00;;;31.00;83.90;;;;;;5036007;28;20144;-82
2022/08/16 12:15:26;;;;;;;5.63;2.60;;;31.10;83.70;;;;;;5036013;28;20124;-82
2022/08/16 12:17:52;;;;;;;4.18;2.60;;;31.20;83.70;;;;;;5036422;28;20045;-82
2022/08/16 12:20:24;;;;;;;2.53;2.22;;;31.30;83.30;;;;;;5036056;28;20095;-81
2022/08/16 12:22:50;;;;;;;3.40;2.42;;;31.40;80.70;;;;;;5035790;28;20049;-82
2022/08/16 12:25:17;;;;;;;3.47;2.15;;;31.50;80.60;;;;;;5035984;28;20055;-81
2022/08/16 12:27:45;;;;;;;3.97;2.35;;;31.60;80.30;;;;;;5036184;28;20400;-81
2022/08/16 12:30:13;;;;;;;5.50;2.40;;;31.50;79.50;;;;;;5035619;28;20049;-82
2022/08/16 12:32:39;;;;;;;3.45;2.17;;;31.60;79.20;;;;;;5035593;28;20054;-82
2022/08/16 12:35:06;;;;;;;3.22;2.17;;;31.60;79.10;;;;;;5035523;28;20068;-83
2022/08/16 12:37:32;;;;;;;3.67;2.13;;;31.60;79.50;;;;;;5035389;28;20060;-81